Terminal Aerodrome Forecast
Issued by NWS

Home | Current Version | Previous Version | Text Only | Print | Product List | Glossary On
Versions: 1 2 3 4 5 6 7 8 9 10 11 12 13 14
799
FTUS42 KGSP 312330
TAFGMU
TAF
KGMU 312330Z 0100/0124 02003KT P6SM SCT250
     FM010300 01003KT P6SM BKN250
     FM011100 07003KT P6SM SCT200
     FM012000 18004KT P6SM BKN045 PROB30 0120/0124 4SM -TSRA
      OVC025CB=

USA.gov is the U.S. government's official web portal to all federal, state and local government web resources and services.